sensor_id;sensor_type;location;lat;lon;timestamp;P1;durP1;ratioP1;P2;durP2;ratioP2
71902;SDS011;59778;50.310;18.780;2023-09-19T00:11:37;16.53;;;10.43;;
71902;SDS011;59778;50.310;18.780;2023-09-19T00:26:59;16.83;;;9.93;;
71902;SDS011;59778;50.310;18.780;2023-09-19T00:42:20;17.80;;;10.00;;
71902;SDS011;59778;50.310;18.780;2023-09-19T00:57:42;16.07;;;10.27;;
71902;SDS011;59778;50.310;18.780;2023-09-19T01:43:57;18.10;;;11.10;;
71902;SDS011;59778;50.310;18.780;2023-09-19T01:59:21;18.23;;;11.53;;
71902;SDS011;59778;50.310;18.780;2023-09-19T02:14:45;17.70;;;10.70;;
71902;SDS011;59778;50.310;18.780;2023-09-19T02:30:06;16.80;;;11.03;;
71902;SDS011;59778;50.310;18.780;2023-09-19T02:45:27;20.30;;;11.90;;
71902;SDS011;59778;50.310;18.780;2023-09-19T03:00:48;18.10;;;10.80;;
71902;SDS011;59778;50.310;18.780;2023-09-19T03:16:12;19.07;;;12.00;;
71902;SDS011;59778;50.310;18.780;2023-09-19T03:31:35;21.17;;;13.30;;
71902;SDS011;59778;50.310;18.780;2023-09-19T03:46:57;22.33;;;14.70;;
71902;SDS011;59778;50.310;18.780;2023-09-19T04:02:19;24.43;;;14.37;;
71902;SDS011;59778;50.310;18.780;2023-09-19T04:17:43;24.30;;;15.77;;
71902;SDS011;59778;50.310;18.780;2023-09-19T04:33:04;25.97;;;15.77;;
71902;SDS011;59778;50.310;18.780;2023-09-19T04:48:26;25.00;;;15.07;;
71902;SDS011;59778;50.310;18.780;2023-09-19T05:03:47;24.47;;;16.17;;
71902;SDS011;59778;50.310;18.780;2023-09-19T05:19:13;26.33;;;15.63;;
71902;SDS011;59778;50.310;18.780;2023-09-19T05:34:34;25.07;;;14.63;;
71902;SDS011;59778;50.310;18.780;2023-09-19T05:49:55;22.67;;;12.77;;
71902;SDS011;59778;50.310;18.780;2023-09-19T06:05:16;21.73;;;11.67;;
71902;SDS011;59778;50.310;18.780;2023-09-19T06:20:37;17.40;;;8.13;;
71902;SDS011;59778;50.310;18.780;2023-09-19T06:35:59;14.97;;;5.83;;
71902;SDS011;59778;50.310;18.780;2023-09-19T06:51:21;9.90;;;3.80;;
71902;SDS011;59778;50.310;18.780;2023-09-19T07:06:42;12.83;;;4.67;;
71902;SDS011;59778;50.310;18.780;2023-09-19T07:22:03;9.67;;;3.90;;
71902;SDS011;59778;50.310;18.780;2023-09-19T07:37:24;10.23;;;3.60;;
71902;SDS011;59778;50.310;18.780;2023-09-19T07:52:49;5.93;;;3.07;;
71902;SDS011;59778;50.310;18.780;2023-09-19T08:08:14;8.10;;;3.07;;
71902;SDS011;59778;50.310;18.780;2023-09-19T08:23:35;10.13;;;4.63;;
71902;SDS011;59778;50.310;18.780;2023-09-19T08:38:56;10.90;;;5.13;;
71902;SDS011;59778;50.310;18.780;2023-09-19T08:54:24;16.20;;;5.50;;
71902;SDS011;59778;50.310;18.780;2023-09-19T09:09:47;10.73;;;4.63;;
71902;SDS011;59778;50.310;18.780;2023-09-19T09:25:09;11.13;;;4.70;;
71902;SDS011;59778;50.310;18.780;2023-09-19T09:40:39;11.63;;;5.67;;
71902;SDS011;59778;50.310;18.780;2023-09-19T09:56:07;14.67;;;7.00;;
71902;SDS011;59778;50.310;18.780;2023-09-19T10:11:28;12.30;;;6.10;;
71902;SDS011;59778;50.310;18.780;2023-09-19T10:26:51;11.23;;;5.17;;
71902;SDS011;59778;50.310;18.780;2023-09-19T10:42:16;8.47;;;3.80;;
71902;SDS011;59778;50.310;18.780;2023-09-19T10:57:39;7.67;;;4.10;;
71902;SDS011;59778;50.310;18.780;2023-09-19T11:13:24;11.10;;;4.57;;
71902;SDS011;59778;50.310;18.780;2023-09-19T11:28:55;8.57;;;3.93;;
71902;SDS011;59778;50.310;18.780;2023-09-19T11:44:33;8.43;;;3.83;;
71902;SDS011;59778;50.310;18.780;2023-09-19T11:59:55;11.80;;;4.53;;
71902;SDS011;59778;50.310;18.780;2023-09-19T12:15:22;9.10;;;3.87;;
71902;SDS011;59778;50.310;18.780;2023-09-19T12:30:43;8.67;;;3.50;;
71902;SDS011;59778;50.310;18.780;2023-09-19T12:46:05;7.07;;;3.47;;
71902;SDS011;59778;50.310;18.780;2023-09-19T13:01:26;8.53;;;3.67;;
71902;SDS011;59778;50.310;18.780;2023-09-19T13:32:17;7.10;;;3.23;;
71902;SDS011;59778;50.310;18.780;2023-09-19T13:47:39;7.30;;;3.37;;
71902;SDS011;59778;50.310;18.780;2023-09-19T14:03:01;12.93;;;5.53;;
71902;SDS011;59778;50.310;18.780;2023-09-19T14:18:25;8.13;;;3.13;;
71902;SDS011;59778;50.310;18.780;2023-09-19T14:33:52;5.63;;;2.03;;
71902;SDS011;59778;50.310;18.780;2023-09-19T14:49:14;5.67;;;2.13;;
71902;SDS011;59778;50.310;18.780;2023-09-19T15:04:36;9.47;;;2.27;;
71902;SDS011;59778;50.310;18.780;2023-09-19T15:20:02;3.93;;;1.70;;
71902;SDS011;59778;50.310;18.780;2023-09-19T15:35:24;3.30;;;1.60;;
71902;SDS011;59778;50.310;18.780;2023-09-19T15:50:45;5.47;;;1.70;;
71902;SDS011;59778;50.310;18.780;2023-09-19T16:06:16;4.70;;;2.00;;
71902;SDS011;59778;50.310;18.780;2023-09-19T16:21:39;6.17;;;2.23;;
71902;SDS011;59778;50.310;18.780;2023-09-19T16:37:01;5.30;;;2.00;;
71902;SDS011;59778;50.310;18.780;2023-09-19T16:52:22;6.00;;;2.30;;
71902;SDS011;59778;50.310;18.780;2023-09-19T17:07:43;8.57;;;2.53;;
71902;SDS011;59778;50.310;18.780;2023-09-19T17:23:06;11.30;;;5.23;;
71902;SDS011;59778;50.310;18.780;2023-09-19T17:38:27;9.80;;;4.90;;
71902;SDS011;59778;50.310;18.780;2023-09-19T17:53:48;9.57;;;4.17;;
71902;SDS011;59778;50.310;18.780;2023-09-19T18:09:10;10.23;;;4.03;;
71902;SDS011;59778;50.310;18.780;2023-09-19T18:24:31;10.97;;;3.70;;
71902;SDS011;59778;50.310;18.780;2023-09-19T18:39:52;12.73;;;5.27;;
71902;SDS011;59778;50.310;18.780;2023-09-19T18:55:14;12.70;;;5.67;;
71902;SDS011;59778;50.310;18.780;2023-09-19T19:10:38;14.17;;;8.20;;
71902;SDS011;59778;50.310;18.780;2023-09-19T19:26:00;13.60;;;6.83;;
71902;SDS011;59778;50.310;18.780;2023-09-19T19:41:25;15.93;;;8.30;;
71902;SDS011;59778;50.310;18.780;2023-09-19T19:56:46;14.70;;;7.90;;
71902;SDS011;59778;50.310;18.780;2023-09-19T20:12:08;13.87;;;7.83;;
71902;SDS011;59778;50.310;18.780;2023-09-19T20:27:30;35.87;;;21.20;;
71902;SDS011;59778;50.310;18.780;2023-09-19T20:42:51;18.13;;;10.20;;
71902;SDS011;59778;50.310;18.780;2023-09-19T20:58:14;20.27;;;9.93;;
71902;SDS011;59778;50.310;18.780;2023-09-19T21:13:35;16.90;;;7.97;;
71902;SDS011;59778;50.310;18.780;2023-09-19T21:28:57;15.03;;;7.87;;
71902;SDS011;59778;50.310;18.780;2023-09-19T21:44:18;17.57;;;7.90;;
71902;SDS011;59778;50.310;18.780;2023-09-19T21:59:39;16.30;;;7.80;;
71902;SDS011;59778;50.310;18.780;2023-09-19T22:15:03;12.77;;;7.37;;
71902;SDS011;59778;50.310;18.780;2023-09-19T22:30:31;20.43;;;7.90;;
71902;SDS011;59778;50.310;18.780;2023-09-19T22:45:54;13.57;;;7.83;;
71902;SDS011;59778;50.310;18.780;2023-09-19T23:01:16;13.87;;;7.87;;
71902;SDS011;59778;50.310;18.780;2023-09-19T23:16:49;13.83;;;7.67;;
71902;SDS011;59778;50.310;18.780;2023-09-19T23:32:21;15.97;;;8.17;;
71902;SDS011;59778;50.310;18.780;2023-09-19T23:47:42;16.80;;;8.30;;
